Time;durP1;ratioP1;P1;durP2;ratioP2;P2;SDS_P1;SDS_P2;PMS_P1;PMS_P2;Temp;Humidity;BMP_temperature;BMP_pressure;BME280_temperature;BME280_humidity;BME280_pressure;Samples;Min_cycle;Max_cycle;Signal;HPM_P1;HPM_P2
2021/06/04 00:00:36;;;;;;;34.80;30.33;;;17.90;99.90;;;;;;5080331;28;20481;-62
2021/06/04 00:03:14;;;;;;;34.10;28.43;;;17.90;99.90;;;;;;5080821;28;20044;-62
2021/06/04 00:05:45;;;;;;;41.27;33.93;;;17.90;99.90;;;;;;5081999;27;20044;-62
2021/06/04 00:08:12;;;;;;;39.50;33.17;;;17.90;99.90;;;;;;5081331;28;20041;-61
2021/06/04 00:10:46;;;;;;;43.07;32.30;;;17.90;99.90;;;;;;5081628;27;20083;-62
2021/06/04 00:13:20;;;;;;;45.65;35.60;;;18.00;99.90;;;;;;5081568;27;20045;-62
2021/06/04 00:15:47;;;;;;;41.37;34.07;;;17.90;99.90;;;;;;5081159;28;20059;-62
2021/06/04 00:18:15;;;;;;;38.50;32.53;;;17.90;99.90;;;;;;5082141;27;20048;-61
2021/06/04 00:20:41;;;;;;;47.17;37.67;;;17.90;99.90;;;;;;5082423;27;20040;-61
2021/06/04 00:23:07;;;;;;;47.13;37.43;;;17.80;99.90;;;;;;5152209;27;20044;-62
2021/06/04 00:25:33;;;;;;;43.97;36.23;;;17.80;99.90;;;;;;5151774;27;20050;-62
2021/06/04 00:27:58;;;;;;;46.50;36.23;;;17.80;99.90;;;;;;5082419;28;20064;-62
2021/06/04 00:30:24;;;;;;;46.73;37.53;;;17.80;99.90;;;;;;5081403;28;20052;-62
2021/06/04 00:32:50;;;;;;;52.03;41.10;;;17.80;99.90;;;;;;5082363;28;20053;-63
2021/06/04 00:35:16;;;;;;;58.27;42.93;;;17.80;99.90;;;;;;5082382;28;20397;-62
2021/06/04 00:37:42;;;;;;;58.67;41.33;;;17.80;99.90;;;;;;5081531;28;20049;-61
2021/06/04 00:40:17;;;;;;;58.47;41.97;;;17.80;99.90;;;;;;5082466;28;20067;-63
2021/06/04 00:42:42;;;;;;;55.27;40.40;;;17.70;99.90;;;;;;5084709;27;20156;-62
2021/06/04 00:45:11;;;;;;;63.80;43.47;;;17.70;99.90;;;;;;5085090;28;20081;-62
2021/06/04 00:47:38;;;;;;;57.57;42.43;;;17.70;99.90;;;;;;5084191;28;20040;-63
2021/06/04 00:50:09;;;;;;;63.97;42.47;;;17.70;99.90;;;;;;5084792;28;20084;-63
2021/06/04 00:52:37;;;;;;;56.43;39.97;;;17.60;99.90;;;;;;5085248;27;20044;-63
2021/06/04 00:55:08;;;;;;;55.77;41.87;;;17.50;99.90;;;;;;5084395;28;20059;-63
2021/06/04 00:57:35;;;;;;;63.97;43.50;;;17.60;99.90;;;;;;5083904;28;20044;-63
2021/06/04 01:00:04;;;;;;;62.50;43.70;;;17.60;99.90;;;;;;5084570;27;20037;-63
2021/06/04 01:02:30;;;;;;;66.80;43.83;;;17.50;99.90;;;;;;5083649;28;20048;-63
2021/06/04 01:04:57;;;;;;;64.83;43.57;;;17.60;99.90;;;;;;5084567;27;20045;-63
2021/06/04 01:07:41;;;;;;;68.33;47.03;;;17.50;99.90;;;;;;5084185;27;20461;-62
2021/06/04 01:10:09;;;;;;;63.55;44.20;;;17.50;99.90;;;;;;5084161;27;20047;-62
2021/06/04 01:13:16;;;;;;;60.27;42.50;;;17.50;99.90;;;;;;5082288;28;20112;-63
2021/06/04 01:16:11;;;;;;;71.20;46.90;;;17.60;99.90;;;;;;5084532;27;20048;-62
2021/06/04 01:19:15;;;;;;;63.03;44.70;;;17.50;99.90;;;;;;5083567;27;20053;-62
2021/06/04 01:21:56;;;;;;;63.20;42.90;;;17.50;99.90;;;;;;5083771;28;20053;-63
2021/06/04 01:24:54;;;;;;;70.23;44.93;;;17.50;99.90;;;;;;5084040;27;20076;-62
2021/06/04 01:27:27;;;;;;;70.30;46.20;;;17.40;99.90;;;;;;5153328;27;20045;-62
2021/06/04 01:30:12;;;;;;;70.43;46.47;;;17.40;99.90;;;;;;5084379;27;20048;-63
2021/06/04 01:32:39;;;;;;;67.47;42.77;;;17.40;99.90;;;;;;5153721;27;20060;-62
2021/06/04 01:35:13;;;;;;;68.83;44.80;;;17.30;99.90;;;;;;5084074;27;20049;-62
2021/06/04 01:37:40;;;;;;;65.33;44.73;;;17.30;99.90;;;;;;5083878;28;20065;-61
2021/06/04 01:40:33;;;;;;;63.87;43.60;;;17.40;99.90;;;;;;5083031;27;20060;-63
2021/06/04 01:43:03;;;;;;;67.23;45.30;;;17.30;99.90;;;;;;5083964;27;20097;-62
2021/06/04 01:45:32;;;;;;;67.23;45.83;;;17.30;99.90;;;;;;5082866;27;20073;-62
2021/06/04 01:48:12;;;;;;;62.30;43.90;;;17.30;99.90;;;;;;5083503;27;20498;-62
2021/06/04 01:50:58;;;;;;;73.07;47.13;;;17.30;99.90;;;;;;5082694;28;20078;-62
2021/06/04 01:53:29;;;;;;;75.13;49.37;;;17.30;99.90;;;;;;5083895;28;20537;-63
2021/06/04 01:56:02;;;;;;;61.93;44.50;;;17.10;99.90;;;;;;5083022;27;20056;-62
2021/06/04 01:58:36;;;;;;;70.78;45.72;;;17.20;99.90;;;;;;5153799;27;20037;-62
2021/06/04 02:01:12;;;;;;;73.03;47.63;;;17.20;99.90;;;;;;5084166;28;20049;-63
2021/06/04 02:03:38;;;;;;;76.47;50.30;;;17.20;99.90;;;;;;5083580;27;20092;-62
2021/06/04 02:06:06;;;;;;;70.47;48.47;;;17.20;99.90;;;;;;5083700;27;20044;-62
2021/06/04 02:08:37;;;;;;;78.67;48.63;;;17.20;99.90;;;;;;5083772;27;20048;-63
2021/06/04 02:11:05;;;;;;;71.47;46.33;;;17.20;99.90;;;;;;5082688;28;20037;-63
2021/06/04 02:13:31;;;;;;;69.30;46.93;;;17.20;99.90;;;;;;5083240;27;20060;-63
2021/06/04 02:16:34;;;;;;;76.20;49.80;;;17.20;99.90;;;;;;5083237;28;20037;-62
2021/06/04 02:19:25;;;;;;;75.00;49.63;;;17.20;99.90;;;;;;5082861;28;20041;-63
2021/06/04 02:22:10;;;;;;;67.73;46.37;;;17.20;99.90;;;;;;5082592;28;20056;-63
2021/06/04 02:24:44;;;;;;;67.43;45.47;;;17.10;99.90;;;;;;5082835;27;20045;-62
2021/06/04 02:27:19;;;;;;;69.40;48.90;;;17.10;99.90;;;;;;5083417;27;20097;-63
2021/06/04 02:29:52;;;;;;;68.80;46.00;;;17.10;99.90;;;;;;5083520;27;20496;-62
2021/06/04 02:32:38;;;;;;;72.77;46.87;;;17.20;99.90;;;;;;5083817;28;20489;-62
2021/06/04 02:35:14;;;;;;;70.13;46.27;;;17.10;99.90;;;;;;5083840;27;20080;-63
2021/06/04 02:37:44;;;;;;;65.60;45.67;;;17.10;99.90;;;;;;5084484;27;20044;-63
2021/06/04 02:40:27;;;;;;;64.17;44.90;;;17.10;99.90;;;;;;5082472;27;20064;-62
2021/06/04 02:43:10;;;;;;;71.77;48.00;;;17.10;99.90;;;;;;5083104;27;20055;-63
2021/06/04 02:45:44;;;;;;;68.17;46.63;;;17.10;99.90;;;;;;5083115;27;20048;-63
2021/06/04 02:48:14;;;;;;;73.43;48.97;;;17.00;99.90;;;;;;5082112;28;20511;-63
2021/06/04 02:50:43;;;;;;;72.27;47.23;;;17.00;99.90;;;;;;5082670;28;20151;-62
2021/06/04 02:53:27;;;;;;;76.77;50.83;;;17.00;99.90;;;;;;5081719;28;20048;-62
2021/06/04 02:56:19;;;;;;;81.75;52.60;;;17.00;99.90;;;;;;5083130;27;20040;-62
2021/06/04 02:58:50;;;;;;;81.37;50.23;;;17.00;99.90;;;;;;5083432;27;20044;-62
2021/06/04 03:01:17;;;;;;;81.90;51.50;;;17.00;99.90;;;;;;5083533;27;20104;-62
2021/06/04 03:03:47;;;;;;;80.97;50.33;;;16.90;99.90;;;;;;5082362;27;20089;-63
2021/06/04 03:06:15;;;;;;;74.67;48.60;;;16.80;99.90;;;;;;5082985;28;20074;-62
2021/06/04 03:08:43;;;;;;;72.07;47.90;;;16.80;99.90;;;;;;5083252;27;20055;-63
2021/06/04 03:11:10;;;;;;;79.70;50.93;;;16.70;99.90;;;;;;5082747;28;20048;-63
2021/06/04 03:13:36;;;;;;;82.00;51.23;;;16.70;99.90;;;;;;5083135;28;20077;-62
2021/06/04 03:16:07;;;;;;;71.00;46.80;;;16.60;99.90;;;;;;5083047;27;20052;-63
2021/06/04 03:18:41;;;;;;;77.00;48.27;;;16.60;99.90;;;;;;5083654;28;20111;-62
2021/06/04 03:21:17;;;;;;;76.27;48.40;;;16.50;99.90;;;;;;5082677;28;20040;-62
2021/06/04 03:23:43;;;;;;;86.37;51.03;;;16.50;99.90;;;;;;5083307;27;20052;-63
2021/06/04 03:26:20;;;;;;;87.37;54.47;;;16.50;99.90;;;;;;5082926;27;20045;-62
2021/06/04 03:28:48;;;;;;;79.67;49.80;;;16.50;99.90;;;;;;5082974;28;20068;-62
2021/06/04 03:31:15;;;;;;;77.63;47.87;;;16.50;99.90;;;;;;5083034;27;20036;-62
2021/06/04 03:33:41;;;;;;;74.03;47.83;;;16.50;99.90;;;;;;5082450;27;20044;-62
2021/06/04 03:36:12;;;;;;;79.63;49.67;;;16.40;99.90;;;;;;5086206;28;20112;-62
2021/06/04 03:38:40;;;;;;;75.33;47.23;;;16.50;99.90;;;;;;5087463;27;20100;-62
2021/06/04 03:41:06;;;;;;;75.37;49.40;;;16.50;99.90;;;;;;5158067;27;20048;-62
2021/06/04 03:43:32;;;;;;;96.03;50.17;;;16.50;99.90;;;;;;5087138;28;20036;-62
2021/06/04 03:45:59;;;;;;;61.93;42.17;;;16.50;99.90;;;;;;5087201;27;20048;-62
2021/06/04 03:48:31;;;;;;;48.30;36.30;;;16.50;99.90;;;;;;5086588;27;20047;-62
2021/06/04 03:51:07;;;;;;;52.67;36.93;;;16.50;99.90;;;;;;5086241;27;20056;-62
2021/06/04 03:53:33;;;;;;;61.38;41.67;;;16.50;99.90;;;;;;5086914;28;20044;-62
2021/06/04 03:56:00;;;;;;;61.03;42.40;;;16.40;99.90;;;;;;5086882;28;20093;-63
2021/06/04 03:58:26;;;;;;;58.53;40.67;;;16.50;99.90;;;;;;5085893;27;20477;-62
2021/06/04 04:01:02;;;;;;;60.63;43.10;;;16.50;99.90;;;;;;5086455;27;20055;-62
2021/06/04 04:03:31;;;;;;;63.97;43.30;;;16.60;99.90;;;;;;5140335;27;20048;-63
2021/06/04 04:05:58;;;;;;;65.93;44.10;;;16.60;99.90;;;;;;5086316;27;20051;-62
2021/06/04 04:08:27;;;;;;;74.87;48.00;;;16.60;99.90;;;;;;5085287;28;20048;-61
2021/06/04 04:10:55;;;;;;;65.20;44.03;;;16.60;99.90;;;;;;5086109;27;20083;-63
2021/06/04 04:13:24;;;;;;;65.07;45.00;;;16.70;99.90;;;;;;5085129;28;20049;-63
2021/06/04 04:15:51;;;;;;;85.30;51.30;;;16.80;99.90;;;;;;5085941;27;20055;-62
2021/06/04 04:18:17;;;;;;;78.03;48.40;;;16.80;99.90;;;;;;5069223;27;20056;-62
2021/06/04 04:20:49;;;;;;;62.03;42.93;;;16.90;99.90;;;;;;5134302;27;20049;-62
2021/06/04 04:23:20;;;;;;;62.23;43.87;;;16.80;99.90;;;;;;5065354;28;20045;-63
2021/06/04 04:25:46;;;;;;;60.93;41.27;;;16.80;99.90;;;;;;5134480;27;20045;-62
2021/06/04 04:28:16;;;;;;;65.77;45.13;;;16.80;99.90;;;;;;5065006;28;20373;-62
2021/06/04 04:30:42;;;;;;;59.70;42.83;;;16.80;99.90;;;;;;5065938;28;20068;-62
2021/06/04 04:33:08;;;;;;;60.37;42.27;;;16.80;99.90;;;;;;5065121;28;20053;-62
2021/06/04 04:35:36;;;;;;;79.70;49.70;;;16.90;99.90;;;;;;5065601;28;20041;-63
2021/06/04 04:38:04;;;;;;;66.43;46.70;;;17.00;99.90;;;;;;5134853;27;20159;-63
2021/06/04 04:40:37;;;;;;;62.50;45.53;;;17.10;99.90;;;;;;5065670;28;20053;-63
2021/06/04 04:43:06;;;;;;;68.93;45.33;;;17.10;99.90;;;;;;5065303;28;20045;-63
2021/06/04 04:45:47;;;;;;;63.63;43.88;;;17.00;99.90;;;;;;5065313;28;20053;-63
2021/06/04 04:48:13;;;;;;;64.13;42.83;;;16.90;99.90;;;;;;5065510;28;20072;-63
2021/06/04 04:50:39;;;;;;;61.77;43.17;;;16.90;99.90;;;;;;5064907;28;20049;-63
2021/06/04 04:53:07;;;;;;;65.07;44.50;;;16.80;99.90;;;;;;5060338;28;20052;-63
2021/06/04 04:55:39;;;;;;;62.87;44.43;;;16.80;99.90;;;;;;5049061;28;20041;-63
2021/06/04 04:58:06;;;;;;;65.87;44.07;;;16.80;99.90;;;;;;5048567;28;20388;-64
2021/06/04 05:00:33;;;;;;;59.90;42.73;;;16.70;99.90;;;;;;5047972;28;20524;-64
2021/06/04 05:03:00;;;;;;;59.87;42.53;;;16.80;99.90;;;;;;5049276;28;20393;-64
2021/06/04 05:05:29;;;;;;;64.73;42.97;;;16.80;99.90;;;;;;5047882;28;20060;-64
2021/06/04 05:07:54;;;;;;;51.70;38.07;;;16.80;99.90;;;;;;5053026;28;20051;-62
2021/06/04 05:10:21;;;;;;;56.90;39.63;;;16.80;99.90;;;;;;5057340;28;20029;-63
2021/06/04 05:12:48;;;;;;;55.13;39.90;;;16.80;99.90;;;;;;5077152;27;20515;-64
2021/06/04 05:15:17;;;;;;;63.00;43.53;;;16.90;99.90;;;;;;5069931;27;20043;-64
2021/06/04 05:17:43;;;;;;;56.63;41.33;;;17.20;99.90;;;;;;5060303;27;20132;-63
2021/06/04 05:20:11;;;;;;;64.03;44.50;;;17.40;99.90;;;;;;5068164;28;20048;-63
2021/06/04 05:22:38;;;;;;;61.23;42.10;;;17.50;99.90;;;;;;5069528;27;20048;-62
2021/06/04 05:25:07;;;;;;;57.40;42.17;;;17.50;99.90;;;;;;5137251;27;20055;-63
2021/06/04 05:27:33;;;;;;;58.53;41.53;;;17.60;99.90;;;;;;5149933;27;20046;-63
2021/06/04 05:29:59;;;;;;;60.97;41.00;;;17.70;99.90;;;;;;5151683;27;20062;-63
2021/06/04 05:32:25;;;;;;;55.80;40.83;;;17.90;99.90;;;;;;5152223;27;20043;-63
2021/06/04 05:34:51;;;;;;;53.97;39.87;;;18.10;99.90;;;;;;5074937;27;20127;-63
2021/06/04 05:37:16;;;;;;;57.97;41.43;;;18.30;99.90;;;;;;5067846;28;20677;-64
2021/06/04 05:39:42;;;;;;;58.47;41.40;;;18.40;99.90;;;;;;5136560;27;20093;-63
2021/06/04 05:42:08;;;;;;;58.77;42.40;;;18.60;99.90;;;;;;5067971;27;20089;-63
2021/06/04 05:44:36;;;;;;;58.63;42.93;;;18.80;99.90;;;;;;5068626;28;20040;-63
2021/06/04 05:47:09;;;;;;;55.73;39.93;;;19.00;99.90;;;;;;5068128;28;20040;-63
2021/06/04 05:49:36;;;;;;;54.97;39.30;;;19.20;99.90;;;;;;5137396;27;20044;-63
2021/06/04 05:52:08;;;;;;;50.33;36.80;;;19.40;99.90;;;;;;5068383;28;20295;-64
2021/06/04 05:54:40;;;;;;;54.47;38.57;;;19.60;99.90;;;;;;5067848;27;20040;-61
2021/06/04 05:57:06;;;;;;;57.60;36.70;;;19.90;99.90;;;;;;5068172;28;20095;-64
2021/06/04 05:59:32;;;;;;;50.83;36.60;;;19.90;99.90;;;;;;5068470;28;20089;-63
2021/06/04 06:01:57;;;;;;;50.93;37.17;;;20.10;99.90;;;;;;5068811;27;20044;-63
2021/06/04 06:04:25;;;;;;;50.57;35.27;;;20.30;99.90;;;;;;5068330;27;20083;-64
2021/06/04 06:06:52;;;;;;;49.80;35.47;;;20.30;99.90;;;;;;5067305;28;20409;-63
2021/06/04 06:09:21;;;;;;;48.67;34.37;;;20.50;99.90;;;;;;5067952;27;20055;-67
2021/06/04 06:11:48;;;;;;;51.53;34.23;;;20.80;99.90;;;;;;5077074;28;20059;-62
2021/06/04 06:14:15;;;;;;;47.07;33.33;;;20.90;99.90;;;;;;5088312;28;20075;-62
2021/06/04 06:16:42;;;;;;;43.67;33.27;;;20.90;99.90;;;;;;5089949;27;20085;-62
2021/06/04 06:19:12;;;;;;;46.30;33.73;;;20.90;99.90;;;;;;5089416;28;20107;-62
2021/06/04 06:21:39;;;;;;;46.67;32.93;;;20.80;99.90;;;;;;5081386;27;20068;-60
2021/06/04 06:24:06;;;;;;;43.40;32.47;;;20.90;99.90;;;;;;5087768;28;20108;-62
2021/06/04 06:26:33;;;;;;;39.50;29.53;;;21.20;99.90;;;;;;5089911;28;20119;-62
2021/06/04 06:29:00;;;;;;;38.93;30.30;;;21.20;99.90;;;;;;5089869;28;20076;-63
2021/06/04 06:31:33;;;;;;;42.53;31.93;;;21.20;99.90;;;;;;5090514;28;20043;-62
2021/06/04 06:33:59;;;;;;;45.97;31.40;;;21.30;99.90;;;;;;5090473;28;20119;-61
2021/06/04 06:36:30;;;;;;;40.93;30.00;;;21.30;99.90;;;;;;5090206;28;20043;-62
2021/06/04 06:39:00;;;;;;;39.80;30.73;;;21.30;99.90;;;;;;5090261;28;20044;-61
2021/06/04 06:41:28;;;;;;;41.23;29.03;;;21.30;99.90;;;;;;5089649;28;20104;-62
2021/06/04 06:43:54;;;;;;;42.17;31.27;;;21.30;99.90;;;;;;5089500;28;20095;-61
2021/06/04 06:46:23;;;;;;;42.23;31.43;;;21.60;99.90;;;;;;5089046;27;20040;-62
2021/06/04 06:48:49;;;;;;;43.47;31.93;;;21.70;99.90;;;;;;5079946;28;20052;-62
2021/06/04 06:51:16;;;;;;;40.70;30.20;;;21.70;99.90;;;;;;5066940;28;20040;-61
2021/06/04 06:53:43;;;;;;;42.77;30.70;;;21.80;99.90;;;;;;5067067;28;20048;-63
2021/06/04 06:56:17;;;;;;;45.40;31.57;;;21.70;99.90;;;;;;5067367;28;20090;-62
2021/06/04 06:58:43;;;;;;;41.70;29.97;;;21.50;99.90;;;;;;5067075;28;20314;-61
2021/06/04 07:01:09;;;;;;;42.27;28.93;;;21.60;99.80;;;;;;5067299;28;20052;-62
2021/06/04 07:03:37;;;;;;;35.40;27.70;;;21.70;98.70;;;;;;5067282;28;20089;-61
2021/06/04 07:06:07;;;;;;;37.53;26.47;;;21.70;98.30;;;;;;5066914;28;20040;-61
2021/06/04 07:08:33;;;;;;;40.03;28.87;;;21.70;97.80;;;;;;5067540;27;20048;-63
2021/06/04 07:10:58;;;;;;;36.47;29.10;;;21.90;98.60;;;;;;5083522;28;20437;-60
2021/06/04 07:13:26;;;;;;;42.87;29.03;;;22.00;99.30;;;;;;5086991;28;20060;-62
2021/06/04 07:16:02;;;;;;;34.90;26.33;;;22.00;98.20;;;;;;5086240;28;20063;-61
2021/06/04 07:18:28;;;;;;;39.30;28.60;;;22.00;96.10;;;;;;5086349;28;20041;-61
2021/06/04 07:20:55;;;;;;;36.53;27.53;;;22.10;96.40;;;;;;5086567;27;20155;-62
2021/06/04 07:23:22;;;;;;;35.80;27.97;;;22.30;93.60;;;;;;5087206;27;20044;-61
2021/06/04 07:25:53;;;;;;;33.63;26.67;;;22.20;95.80;;;;;;5087592;28;20037;-62
2021/06/04 07:28:22;;;;;;;35.97;26.90;;;22.60;95.80;;;;;;5087095;28;20040;-61
2021/06/04 07:30:50;;;;;;;34.60;25.43;;;22.50;94.30;;;;;;5088240;28;20044;-61
2021/06/04 07:33:22;;;;;;;36.27;26.53;;;22.50;93.30;;;;;;5087410;27;20060;-61
2021/06/04 07:35:50;;;;;;;33.90;26.57;;;22.40;93.70;;;;;;5087936;28;20051;-60
2021/06/04 07:38:16;;;;;;;33.33;26.07;;;22.20;94.90;;;;;;5089418;28;20083;-62
2021/06/04 07:40:43;;;;;;;32.83;24.27;;;22.30;95.10;;;;;;5089417;27;20443;-60
2021/06/04 07:43:13;;;;;;;30.90;23.53;;;22.30;94.30;;;;;;5089133;28;20037;-60
2021/06/04 07:45:41;;;;;;;30.03;23.43;;;22.60;92.60;;;;;;5087428;28;20112;-61
2021/06/04 07:48:12;;;;;;;32.33;24.50;;;22.60;91.90;;;;;;5087074;28;20040;-62
2021/06/04 07:50:40;;;;;;;33.10;23.40;;;22.70;91.80;;;;;;5087858;28;20064;-61
2021/06/04 07:53:06;;;;;;;31.47;22.23;;;22.70;91.20;;;;;;5086409;28;20051;-61
2021/06/04 07:55:32;;;;;;;31.47;22.33;;;22.90;91.90;;;;;;5087618;27;20056;-61
2021/06/04 07:57:59;;;;;;;34.23;21.77;;;22.90;90.50;;;;;;5087650;27;20121;-62
2021/06/04 08:00:27;;;;;;;33.10;21.10;;;22.90;87.30;;;;;;5150635;27;20044;-60
2021/06/04 08:02:55;;;;;;;29.10;22.57;;;23.00;88.70;;;;;;5069466;28;20535;-61
2021/06/04 08:05:22;;;;;;;29.70;21.83;;;23.10;90.10;;;;;;5069965;28;20120;-60
2021/06/04 08:07:48;;;;;;;29.73;20.87;;;22.80;85.40;;;;;;5069819;28;20048;-62
2021/06/04 08:10:16;;;;;;;29.30;21.47;;;22.80;87.10;;;;;;5069348;27;20362;-61
2021/06/04 08:12:43;;;;;;;28.77;20.70;;;22.60;89.80;;;;;;5069753;28;20480;-60
2021/06/04 08:15:23;;;;;;;23.23;19.60;;;22.70;89.80;;;;;;5069863;27;20077;-60
2021/06/04 08:17:50;;;;;;;22.43;18.90;;;22.60;89.80;;;;;;5068956;28;20052;-60
2021/06/04 08:20:22;;;;;;;26.13;20.30;;;22.50;89.40;;;;;;5068774;28;20044;-61
2021/06/04 08:22:50;;;;;;;27.10;20.30;;;22.50;90.90;;;;;;5069376;28;20073;-61
2021/06/04 08:25:17;;;;;;;27.80;18.63;;;22.50;90.40;;;;;;5069168;28;20049;-60
2021/06/04 08:27:43;;;;;;;25.87;18.70;;;22.50;87.60;;;;;;5069309;28;20500;-61
2021/06/04 08:30:12;;;;;;;26.67;19.70;;;22.40;87.90;;;;;;5069309;28;20135;-61
2021/06/04 08:32:37;;;;;;;26.57;18.70;;;22.50;87.50;;;;;;5138687;27;20155;-61
2021/06/04 08:35:05;;;;;;;27.67;19.43;;;22.70;89.20;;;;;;5068779;28;20139;-61
2021/06/04 08:37:31;;;;;;;25.90;19.03;;;22.60;89.80;;;;;;5068973;27;20408;-61
2021/06/04 08:39:57;;;;;;;23.67;17.73;;;22.70;88.10;;;;;;5069519;28;20047;-60
2021/06/04 08:42:28;;;;;;;23.83;16.10;;;22.80;88.30;;;;;;5068884;28;20128;-60
2021/06/04 08:45:20;;;;;;;26.03;16.00;;;22.80;85.90;;;;;;5069359;28;20469;-60
2021/06/04 08:47:55;;;;;;;19.90;15.03;;;22.90;86.40;;;;;;5068840;28;20049;-60
2021/06/04 08:50:36;;;;;;;18.80;15.40;;;22.80;84.10;;;;;;5068926;28;20184;-61
2021/06/04 08:53:31;;;;;;;21.43;15.37;;;22.90;83.40;;;;;;5069512;28;20075;-63
2021/06/04 08:56:03;;;;;;;20.10;15.37;;;22.90;83.30;;;;;;5069157;27;20082;-62
2021/06/04 08:58:48;;;;;;;20.33;16.03;;;22.80;84.60;;;;;;5068995;27;20044;-61
2021/06/04 09:01:27;;;;;;;25.83;16.97;;;22.90;82.20;;;;;;5138898;27;20515;-61
2021/06/04 09:04:00;;;;;;;24.27;17.63;;;22.90;87.30;;;;;;5068574;28;20462;-61
2021/06/04 09:06:37;;;;;;;21.60;13.93;;;22.90;90.30;;;;;;5069077;27;20127;-60
2021/06/04 09:09:14;;;;;;;22.13;16.63;;;23.00;84.00;;;;;;5068911;28;20512;-60
2021/06/04 09:11:40;;;;;;;19.17;15.10;;;22.90;80.10;;;;;;5069033;27;20044;-61
2021/06/04 09:14:07;;;;;;;20.30;15.40;;;23.10;82.00;;;;;;5068686;28;20048;-61
2021/06/04 09:16:52;;;;;;;21.83;16.37;;;23.10;78.50;;;;;;5079410;27;20052;-63
2021/06/04 09:19:29;;;;;;;22.70;16.07;;;23.10;79.70;;;;;;5079634;28;20086;-61
2021/06/04 09:21:55;;;;;;;23.60;17.97;;;23.20;79.70;;;;;;5081042;27;20068;-61
2021/06/04 09:24:44;;;;;;;20.37;16.67;;;23.20;79.50;;;;;;5081750;28;20113;-62
2021/06/04 09:27:48;;;;;;;23.20;16.07;;;23.40;79.10;;;;;;5081657;27;20044;-61
2021/06/04 09:30:17;;;;;;;;;;;23.40;75.80;;;;;;5092217;27;20132;-61
2021/06/04 09:33:04;;;;;;;23.50;18.20;;;23.40;76.90;;;;;;5067977;27;19960;-59
2021/06/04 09:35:30;;;;;;;25.03;17.63;;;23.50;77.60;;;;;;5068954;27;20190;-58
2021/06/04 09:38:19;;;;;;;20.60;15.77;;;23.50;76.90;;;;;;5068269;27;20119;-58
2021/06/04 09:40:49;;;;;;;20.63;14.77;;;23.70;74.20;;;;;;5068624;28;20040;-60
2021/06/04 09:43:22;;;;;;;23.83;16.60;;;23.80;71.80;;;;;;5075451;27;20039;-61
2021/06/04 09:46:04;;;;;;;21.03;16.83;;;23.80;72.50;;;;;;5159797;27;20141;-62
2021/06/04 09:48:51;;;;;;;19.30;14.73;;;23.90;74.10;;;;;;5088472;27;20040;-63
2021/06/04 09:51:32;;;;;;;16.27;12.47;;;23.90;69.90;;;;;;5089568;27;20028;-62
2021/06/04 09:54:17;;;;;;;16.43;11.93;;;24.00;69.50;;;;;;5088299;27;20073;-64
2021/06/04 09:56:43;;;;;;;20.43;14.30;;;23.80;67.00;;;;;;5088454;28;20056;-64
2021/06/04 09:59:14;;;;;;;18.40;12.87;;;23.90;70.10;;;;;;5088954;28;20048;-62
2021/06/04 10:01:46;;;;;;;13.50;10.67;;;24.00;67.90;;;;;;5088604;27;20037;-64
2021/06/04 10:04:16;;;;;;;15.87;11.67;;;24.00;64.80;;;;;;5088869;28;20056;-63
2021/06/04 10:06:45;;;;;;;15.37;9.60;;;23.90;64.10;;;;;;5086269;28;20058;-61
2021/06/04 10:09:34;;;;;;;13.87;8.93;;;24.00;62.00;;;;;;5068216;28;20052;-62
2021/06/04 10:12:18;;;;;;;11.03;7.87;;;24.10;60.40;;;;;;5067375;28;20103;-61
2021/06/04 10:15:31;;;;;;;10.80;8.00;;;24.20;61.70;;;;;;5070000;28;20071;-61
2021/06/04 10:20:38;;;;;;;9.17;7.33;;;24.50;62.20;;;;;;5067177;28;20064;-62
2021/06/04 10:23:26;;;;;;;8.73;6.50;;;24.50;57.30;;;;;;5067532;27;20044;-62
2021/06/04 10:25:59;;;;;;;16.90;10.77;;;24.50;60.60;;;;;;5067369;28;20040;-62
2021/06/04 10:28:37;;;;;;;15.18;10.13;;;24.50;61.40;;;;;;5136598;27;21643;-62
2021/06/04 10:31:09;;;;;;;17.57;10.93;;;24.60;60.80;;;;;;5067259;28;20135;-61
2021/06/04 10:33:43;;;;;;;14.93;12.07;;;24.70;60.80;;;;;;5067432;28;20049;-60
2021/06/04 10:36:14;;;;;;;13.90;11.37;;;24.70;60.80;;;;;;5136345;27;20521;-61
2021/06/04 10:38:46;;;;;;;15.43;11.63;;;24.70;59.90;;;;;;5067434;27;20048;-61
2021/06/04 10:41:15;;;;;;;13.43;10.97;;;24.80;60.80;;;;;;5067001;28;20097;-61
2021/06/04 10:44:08;;;;;;;18.60;13.13;;;25.10;60.40;;;;;;5136201;27;20089;-60
2021/06/04 10:47:00;;;;;;;15.90;13.52;;;25.20;61.40;;;;;;5067287;28;20096;-60
2021/06/04 10:49:50;;;;;;;19.00;14.53;;;25.30;61.40;;;;;;5066658;27;20505;-58
2021/06/04 10:52:21;;;;;;;20.30;14.07;;;25.30;62.00;;;;;;5066531;27;20362;-61
2021/06/04 10:55:11;;;;;;;18.43;14.53;;;25.50;63.70;;;;;;5053701;28;20048;-60
2021/06/04 10:57:58;;;;;;;21.20;14.33;;;25.50;62.60;;;;;;5047049;28;20068;-61
2021/06/04 11:00:35;;;;;;;23.03;17.30;;;25.60;61.50;;;;;;5047322;28;20066;-63
2021/06/04 11:03:17;;;;;;;20.00;16.30;;;25.50;61.10;;;;;;5047734;28;20080;-60
2021/06/04 11:05:48;;;;;;;21.03;15.97;;;25.30;62.40;;;;;;5048025;28;20063;-60
2021/06/04 11:08:26;;;;;;;22.40;15.50;;;25.30;62.90;;;;;;5047810;28;20439;-60
2021/06/04 11:11:15;;;;;;;19.77;15.10;;;25.00;63.80;;;;;;5047212;28;20056;-61
2021/06/04 11:13:59;;;;;;;19.00;16.00;;;24.90;62.60;;;;;;5047606;28;20542;-60
2021/06/04 11:16:45;;;;;;;;;;;24.70;64.70;;;;;;5047711;28;20367;-60
2021/06/04 11:19:39;;;;;;;16.53;13.20;;;24.60;64.70;;;;;;5047285;28;19928;-59
2021/06/04 11:22:26;;;;;;;17.83;12.48;;;24.70;61.60;;;;;;5047501;28;20060;-59
2021/06/04 11:24:55;;;;;;;17.67;12.80;;;24.70;61.10;;;;;;5047484;28;20037;-59
2021/06/04 11:27:34;;;;;;;17.77;12.47;;;24.70;60.80;;;;;;5047126;28;20056;-61
2021/06/04 11:30:01;;;;;;;15.27;11.63;;;24.80;60.10;;;;;;5047298;28;20102;-60
2021/06/04 11:32:35;;;;;;;15.67;12.47;;;24.70;60.70;;;;;;5047368;28;20087;-60
2021/06/04 11:35:18;;;;;;;21.87;12.70;;;24.70;59.80;;;;;;5047257;28;20045;-60
2021/06/04 11:38:05;;;;;;;19.33;12.40;;;24.80;59.50;;;;;;5047000;28;20037;-60
2021/06/04 11:40:36;;;;;;;15.17;11.43;;;24.70;59.00;;;;;;5046761;28;20045;-60
2021/06/04 11:43:25;;;;;;;15.37;11.33;;;24.60;60.40;;;;;;5046625;28;20060;-61
2021/06/04 11:46:17;;;;;;;16.37;11.47;;;24.60;60.20;;;;;;5105613;28;20061;-60
2021/06/04 11:48:54;;;;;;;13.77;11.47;;;24.70;59.40;;;;;;5046485;28;20052;-62
2021/06/04 11:51:20;;;;;;;14.33;10.90;;;24.80;58.90;;;;;;5046126;28;20045;-62
2021/06/04 11:53:53;;;;;;;13.63;10.33;;;25.00;60.60;;;;;;5046371;28;20051;-61
2021/06/04 11:56:42;;;;;;;13.57;10.00;;;24.90;57.60;;;;;;5048164;28;20056;-62
2021/06/04 11:59:34;;;;;;;15.17;11.17;;;24.90;56.70;;;;;;5118965;27;20132;-61
2021/06/04 12:02:05;;;;;;;19.47;13.13;;;24.90;58.10;;;;;;5049951;28;20371;-63
2021/06/04 12:04:30;;;;;;;16.83;13.43;;;25.00;59.40;;;;;;5118789;27;20044;-62
2021/06/04 12:06:58;;;;;;;15.17;11.40;;;25.00;59.20;;;;;;5050230;28;20378;-61
2021/06/04 12:09:32;;;;;;;17.57;11.13;;;25.00;59.30;;;;;;5049760;28;20061;-61
2021/06/04 12:12:17;;;;;;;17.77;10.83;;;25.30;59.60;;;;;;5119186;27;20063;-61
2021/06/04 12:14:55;;;;;;;18.40;11.70;;;25.20;58.20;;;;;;5118358;27;20071;-61
2021/06/04 12:17:30;;;;;;;17.97;12.13;;;25.10;59.10;;;;;;5049783;28;20044;-62
2021/06/04 12:20:31;;;;;;;15.10;11.63;;;25.00;59.90;;;;;;5049764;27;20084;-61
2021/06/04 12:23:09;;;;;;;17.47;12.30;;;25.00;58.40;;;;;;5070452;28;20493;-61
2021/06/04 12:25:49;;;;;;;16.07;11.53;;;25.10;59.30;;;;;;5052154;27;20064;-61
2021/06/04 12:28:18;;;;;;;14.10;10.40;;;25.20;58.80;;;;;;5118772;27;20470;-61
2021/06/04 12:30:52;;;;;;;16.50;10.30;;;25.50;60.40;;;;;;5049933;28;20052;-61
2021/06/04 12:33:38;;;;;;;14.17;10.27;;;25.60;57.70;;;;;;5049393;28;20091;-60
2021/06/04 12:36:30;;;;;;;14.20;9.53;;;25.50;55.90;;;;;;5049731;28;20132;-60
2021/06/04 12:39:21;;;;;;;14.17;9.40;;;25.60;57.90;;;;;;5049540;27;20073;-61
2021/06/04 12:42:05;;;;;;;13.43;9.40;;;25.70;57.00;;;;;;5049972;28;20041;-61
2021/06/04 12:44:30;;;;;;;15.48;8.77;;;25.80;56.40;;;;;;5118862;27;20045;-62
2021/06/04 12:46:56;;;;;;;15.20;10.00;;;26.00;57.30;;;;;;5049015;28;20045;-60
2021/06/04 12:49:22;;;;;;;15.47;9.87;;;26.00;56.90;;;;;;5049304;28;20105;-61
2021/06/04 12:51:51;;;;;;;14.67;10.73;;;26.10;57.10;;;;;;5049413;28;20090;-60
2021/06/04 12:54:29;;;;;;;16.43;10.50;;;26.10;56.60;;;;;;5051073;27;20045;-61
2021/06/04 12:56:59;;;;;;;16.37;9.37;;;26.10;56.20;;;;;;5068925;27;20040;-62
2021/06/04 12:59:29;;;;;;;12.30;9.23;;;26.10;57.30;;;;;;5068321;27;20068;-60